createdAt,value
2018-06-02T00:02:25.744Z,22.60
2018-06-02T00:04:53.456Z,22.50
2018-06-02T00:07:22.620Z,22.50
2018-06-02T00:09:50.694Z,22.40
2018-06-02T00:12:19.594Z,22.50
2018-06-02T00:14:47.750Z,22.50
2018-06-02T00:17:15.390Z,22.40
2018-06-02T00:19:43.382Z,22.40
2018-06-02T00:22:12.669Z,22.40
2018-06-02T00:24:40.745Z,22.40
2018-06-02T00:27:08.522Z,22.40
2018-06-02T00:29:36.162Z,22.50
2018-06-02T00:32:04.643Z,22.40
2018-06-02T00:34:32.423Z,22.20
2018-06-02T00:37:01.006Z,22.20
2018-06-02T00:39:28.879Z,22.20
2018-06-02T00:41:56.636Z,22.20
2018-06-02T00:44:24.818Z,22.20
2018-06-02T00:46:52.985Z,22.30
2018-06-02T00:49:20.754Z,22.30
2018-06-02T00:51:48.504Z,22.20
2018-06-02T00:54:16.378Z,22.20
2018-06-02T00:56:44.950Z,22.10
2018-06-02T00:59:12.734Z,22.10
2018-06-02T01:01:40.783Z,22.00
2018-06-02T01:04:08.960Z,22.00
2018-06-02T01:06:36.829Z,22.00
2018-06-02T01:09:04.589Z,21.80
2018-06-02T01:11:33.183Z,21.70
2018-06-02T01:14:00.950Z,21.80
2018-06-02T01:16:29.536Z,21.70
2018-06-02T01:18:58.806Z,21.70
2018-06-02T01:21:27.026Z,21.80
2018-06-02T01:23:55.575Z,21.70
2018-06-02T01:26:23.343Z,21.70
2018-06-02T01:28:51.206Z,21.80
2018-06-02T01:31:18.978Z,21.70
2018-06-02T01:33:46.723Z,21.80
2018-06-02T01:36:15.010Z,21.80
2018-06-02T01:38:42.870Z,21.80
2018-06-02T01:41:10.740Z,21.70
2018-06-02T01:43:38.811Z,21.60
2018-06-02T01:46:07.086Z,21.60
2018-06-02T01:48:34.859Z,21.70
2018-06-02T01:51:02.508Z,21.70
2018-06-02T01:53:31.090Z,21.60
2018-06-02T01:55:58.858Z,21.70
2018-06-02T01:58:26.632Z,21.80
2018-06-02T02:00:54.792Z,21.70
2018-06-02T02:03:22.971Z,21.70
2018-06-02T02:05:50.741Z,21.70
2018-06-02T02:08:18.911Z,21.70
2018-06-02T02:10:46.667Z,21.60
2018-06-02T02:13:14.721Z,21.60
2018-06-02T02:15:43.515Z,21.60
2018-06-02T02:18:11.287Z,21.70
2018-06-02T02:20:38.950Z,21.70
2018-06-02T02:23:06.612Z,21.80
2018-06-02T02:25:35.125Z,21.90
2018-06-02T02:28:03.679Z,21.90
2018-06-02T02:30:31.443Z,22.00
2018-06-02T02:32:59.297Z,22.00
2018-06-02T02:35:27.064Z,21.90
2018-06-02T02:37:55.031Z,21.90
2018-06-02T02:40:22.798Z,22.00
2018-06-02T02:42:50.558Z,22.00
2018-06-02T02:45:18.754Z,21.90
2018-06-02T02:47:46.923Z,21.90
2018-06-02T02:52:43.863Z,21.90
2018-06-02T02:55:11.731Z,21.80
2018-06-02T02:57:39.507Z,21.90
2018-06-02T03:00:07.255Z,21.90
2018-06-02T03:02:35.025Z,21.80
2018-06-02T03:05:02.786Z,21.80
2018-06-02T03:07:30.974Z,21.80
2018-06-02T03:09:59.967Z,21.80
2018-06-02T03:12:28.840Z,21.80
2018-06-02T03:14:57.013Z,21.80
2018-06-02T03:17:24.772Z,21.80
2018-06-02T03:19:52.862Z,21.80
2018-06-02T03:22:20.908Z,21.80
2018-06-02T03:24:48.690Z,21.80
2018-06-02T03:27:16.855Z,21.90
2018-06-02T03:29:44.504Z,21.90
2018-06-02T03:32:13.140Z,21.90
2018-06-02T03:34:41.577Z,22.00
2018-06-02T03:37:09.446Z,22.00
2018-06-02T03:39:37.316Z,22.00
2018-06-02T03:42:05.077Z,22.00
2018-06-02T03:44:32.850Z,21.90
2018-06-02T03:47:01.213Z,22.00
2018-06-02T03:49:29.695Z,21.90
2018-06-02T03:51:57.463Z,22.00
2018-06-02T03:54:25.332Z,22.00
2018-06-02T03:56:53.102Z,22.10
2018-06-02T04:01:51.495Z,22.10
2018-06-02T04:04:20.665Z,22.10
2018-06-02T04:06:48.863Z,22.20
2018-06-02T04:09:16.613Z,22.10
2018-06-02T04:11:44.682Z,22.10
2018-06-02T04:14:12.960Z,22.10
2018-06-02T04:16:40.764Z,22.20
2018-06-02T04:19:09.099Z,22.20
2018-06-02T04:21:37.139Z,22.20
2018-06-02T04:24:05.040Z,22.30
2018-06-02T04:26:32.810Z,22.30
2018-06-02T04:29:00.870Z,22.30
2018-06-02T04:31:29.869Z,22.30
2018-06-02T04:33:57.527Z,22.30
2018-06-02T04:41:23.672Z,22.40
2018-06-02T04:43:51.345Z,22.40
2018-06-02T04:46:19.212Z,22.40
2018-06-02T04:48:46.863Z,22.40
2018-06-02T04:51:14.942Z,22.50
2018-06-02T04:53:42.713Z,22.40
2018-06-02T04:56:10.766Z,22.40
2018-06-02T04:58:39.354Z,22.30
2018-06-02T05:01:07.229Z,22.40
2018-06-02T05:03:34.883Z,22.50
2018-06-02T05:06:02.546Z,22.50
2018-06-02T05:08:31.083Z,22.30
2018-06-02T05:10:59.510Z,22.40
2018-06-02T05:13:27.376Z,22.40
2018-06-02T05:15:55.154Z,22.40
2018-06-02T05:18:23.721Z,22.40
2018-06-02T05:20:51.496Z,22.50
2018-06-02T05:23:19.350Z,22.40
2018-06-02T05:25:48.141Z,22.50
2018-06-02T05:28:16.010Z,22.30
2018-06-02T05:30:43.873Z,22.40
2018-06-02T05:33:11.736Z,22.40
2018-06-02T05:35:39.383Z,22.40
2018-06-02T05:38:07.148Z,22.50
2018-06-02T05:40:34.977Z,22.50
2018-06-02T05:43:03.510Z,22.60
2018-06-02T05:45:31.373Z,22.70
2018-06-02T05:47:59.135Z,22.80
2018-06-02T05:50:26.902Z,22.90
2018-06-02T05:52:54.667Z,22.90
2018-06-02T05:55:22.844Z,22.90
2018-06-02T05:57:50.871Z,22.90
2018-06-02T06:00:19.182Z,22.90
2018-06-02T06:02:46.844Z,23.00
2018-06-02T06:05:15.023Z,23.00
2018-06-02T06:07:42.793Z,23.10
2018-06-02T06:10:10.977Z,23.10
2018-06-02T06:12:38.836Z,23.20
2018-06-02T06:15:07.206Z,23.40
2018-06-02T06:17:34.859Z,23.50
2018-06-02T06:20:03.035Z,23.50
2018-06-02T06:22:30.813Z,23.60
2018-06-02T06:24:58.550Z,23.60
2018-06-02T06:27:27.144Z,23.60
2018-06-02T06:29:54.918Z,23.70
2018-06-02T06:32:23.390Z,23.70
2018-06-02T06:34:51.264Z,23.60
2018-06-02T06:37:19.023Z,23.70
2018-06-02T06:39:47.486Z,23.70
2018-06-02T06:42:15.146Z,23.70
2018-06-02T06:44:43.240Z,23.70
2018-06-02T06:47:10.884Z,23.70
2018-06-02T06:49:39.054Z,23.80
2018-06-02T06:52:06.772Z,23.80
2018-06-02T06:54:34.910Z,23.90
2018-06-02T06:57:02.961Z,23.70
2018-06-02T06:59:30.718Z,23.80
2018-06-02T07:01:59.508Z,24.00
2018-06-02T07:04:27.181Z,24.10
2018-06-02T07:06:55.346Z,24.10
2018-06-02T07:09:23.008Z,24.00
2018-06-02T07:11:50.804Z,24.10
2018-06-02T07:14:19.045Z,24.20
2018-06-02T07:16:46.711Z,24.30
2018-06-02T07:21:43.488Z,24.50
2018-06-02T07:24:11.346Z,24.40
2018-06-02T07:29:09.114Z,24.50
2018-06-02T07:31:36.990Z,24.50
2018-06-02T07:34:04.851Z,24.50
2018-06-02T07:36:33.022Z,24.40
2018-06-02T07:39:01.077Z,24.50
2018-06-02T07:41:28.839Z,24.50
2018-06-02T07:43:57.130Z,24.40
2018-06-02T07:46:25.012Z,24.40
2018-06-02T07:48:52.882Z,24.40
2018-06-02T07:51:21.041Z,24.50
2018-06-02T07:53:48.792Z,24.60
2018-06-02T07:56:16.977Z,24.80
2018-06-02T07:58:44.745Z,24.90
2018-06-02T08:01:13.008Z,24.90
2018-06-02T08:03:40.663Z,24.90
2018-06-02T08:06:08.846Z,24.80
2018-06-02T08:08:36.923Z,24.90
2018-06-02T08:11:05.293Z,24.80
2018-06-02T08:13:33.160Z,24.80
2018-06-02T08:16:00.848Z,24.60
2018-06-02T08:18:29.025Z,24.70
2018-06-02T08:20:56.860Z,24.70
2018-06-02T08:23:24.629Z,24.80
2018-06-02T08:25:53.003Z,24.80
2018-06-02T08:28:21.192Z,24.90
2018-06-02T08:30:49.658Z,24.90
2018-06-02T08:33:17.478Z,24.80
2018-06-02T08:35:45.287Z,24.90
2018-06-02T08:38:12.938Z,24.70
2018-06-02T08:40:40.749Z,24.80
2018-06-02T08:43:08.912Z,24.80
2018-06-02T08:45:37.252Z,24.70
2018-06-02T08:48:05.124Z,24.60
2018-06-02T08:50:32.987Z,24.60
2018-06-02T08:53:00.640Z,24.60
2018-06-02T08:55:28.707Z,24.60
2018-06-02T08:57:56.907Z,24.40
2018-06-02T09:00:25.159Z,24.30
2018-06-02T09:02:52.945Z,24.40
2018-06-02T09:05:20.817Z,24.50
2018-06-02T09:07:48.975Z,24.50
2018-06-02T09:10:16.770Z,24.40
2018-06-02T09:12:45.111Z,24.40
2018-06-02T09:15:12.872Z,24.40
2018-06-02T09:17:41.151Z,24.30
2018-06-02T09:20:08.954Z,24.10
2018-06-02T09:22:37.208Z,24.30
2018-06-02T09:25:05.048Z,24.40
2018-06-02T09:27:32.932Z,24.50
2018-06-02T09:30:01.302Z,24.50
2018-06-02T09:32:29.173Z,24.60
2018-06-02T09:34:56.930Z,24.50
2018-06-02T09:37:25.146Z,24.60
2018-06-02T09:42:22.889Z,24.60
2018-06-02T09:44:50.963Z,24.60
2018-06-02T09:47:19.522Z,24.60
2018-06-02T09:49:47.312Z,24.60
2018-06-02T09:52:15.804Z,24.70
2018-06-02T09:54:43.546Z,24.60
2018-06-02T09:57:11.731Z,24.60
2018-06-02T09:59:39.366Z,24.70
2018-06-02T10:02:07.043Z,24.70
2018-06-02T10:04:35.235Z,24.80
2018-06-02T10:07:03.096Z,24.90
2018-06-02T10:09:30.948Z,24.90
2018-06-02T10:11:59.124Z,24.80
2018-06-02T10:14:27.278Z,24.90
2018-06-02T10:16:54.965Z,24.90
2018-06-02T10:19:23.232Z,24.90
2018-06-02T10:21:51.007Z,25.00
2018-06-02T10:24:19.175Z,24.80
2018-06-02T10:29:16.834Z,24.90
2018-06-02T10:31:45.014Z,24.90
2018-06-02T10:34:13.203Z,25.00
2018-06-02T10:36:41.091Z,25.00
2018-06-02T10:39:09.327Z,25.10
2018-06-02T10:41:37.108Z,25.20
2018-06-02T10:44:05.091Z,25.10
2018-06-02T10:46:33.663Z,25.20
2018-06-02T10:49:01.408Z,25.30
2018-06-02T10:51:29.065Z,25.30
2018-06-02T10:53:56.830Z,25.20
2018-06-02T10:56:25.108Z,25.20
2018-06-02T10:58:52.890Z,25.20
2018-06-02T11:01:21.066Z,25.30
2018-06-02T11:03:49.319Z,25.20
2018-06-02T11:06:17.113Z,25.40
2018-06-02T11:08:45.562Z,25.40
2018-06-02T11:11:13.345Z,25.50
2018-06-02T11:13:40.983Z,25.50
2018-06-02T11:16:09.160Z,25.60
2018-06-02T11:18:37.031Z,25.80
2018-06-02T11:21:05.206Z,25.80
2018-06-02T11:23:33.483Z,25.80
2018-06-02T11:26:01.343Z,25.80
2018-06-02T11:28:29.093Z,25.90
2018-06-02T11:30:56.974Z,26.10
2018-06-02T11:33:25.154Z,26.00
2018-06-02T11:35:52.845Z,25.90
2018-06-02T11:38:20.984Z,25.90
2018-06-02T11:40:49.143Z,26.00
2018-06-02T11:43:16.810Z,26.10
2018-06-02T11:45:45.621Z,26.10
2018-06-02T11:48:13.481Z,26.10
2018-06-02T11:50:41.357Z,26.10
2018-06-02T11:53:09.198Z,26.20
2018-06-02T11:55:36.981Z,26.30
2018-06-02T11:58:05.234Z,26.30
2018-06-02T12:00:33.010Z,26.40
2018-06-02T12:03:01.267Z,26.40
2018-06-02T12:05:29.143Z,26.50
2018-06-02T12:07:56.797Z,26.50
2018-06-02T12:10:24.986Z,26.90
2018-06-02T12:12:53.027Z,27.00
2018-06-02T12:15:21.322Z,27.10
2018-06-02T12:17:49.008Z,27.40
2018-06-02T12:20:17.354Z,27.50
2018-06-02T12:22:45.110Z,27.60
2018-06-02T12:25:12.887Z,27.70
2018-06-02T12:27:40.943Z,27.90
2018-06-02T12:30:09.425Z,27.90
2018-06-02T12:32:37.306Z,28.10
2018-06-02T12:35:05.065Z,28.20
2018-06-02T12:37:34.677Z,28.30
2018-06-02T12:40:03.260Z,28.60
2018-06-02T12:42:31.016Z,28.70
2018-06-02T12:47:27.774Z,28.70
2018-06-02T12:49:55.457Z,28.80
2018-06-02T12:52:23.189Z,28.70
2018-06-02T12:54:50.960Z,28.80
2018-06-02T12:57:19.022Z,28.90
2018-06-02T12:59:47.205Z,29.00
2018-06-02T13:02:14.900Z,29.40
2018-06-02T13:04:43.031Z,29.50
2018-06-02T13:07:11.217Z,29.40
2018-06-02T13:09:39.495Z,29.40
2018-06-02T13:12:07.156Z,29.30
2018-06-02T13:14:35.257Z,29.20
2018-06-02T13:17:03.095Z,29.20
2018-06-02T13:19:31.358Z,29.40
2018-06-02T13:21:59.024Z,29.50
2018-06-02T13:24:27.201Z,29.40
2018-06-02T13:26:54.979Z,29.40
2018-06-02T13:29:23.027Z,29.20
2018-06-02T13:31:51.201Z,29.10
2018-06-02T13:34:18.871Z,29.20
2018-06-02T13:36:47.042Z,29.30
2018-06-02T13:39:15.226Z,29.20
2018-06-02T13:41:43.081Z,28.70
2018-06-02T13:44:11.255Z,28.20
2018-06-02T13:46:39.030Z,27.60
2018-06-02T13:49:07.329Z,27.40
2018-06-02T13:51:35.975Z,27.00
2018-06-02T13:54:03.843Z,26.60
2018-06-02T13:56:31.618Z,26.60
2018-06-02T13:58:59.260Z,26.60
2018-06-02T14:01:27.027Z,26.40
2018-06-02T14:03:55.204Z,25.50
2018-06-02T14:06:22.851Z,23.90
2018-06-02T14:08:51.028Z,23.50
2018-06-02T14:11:19.825Z,23.20
2018-06-02T14:13:47.627Z,23.00
2018-06-02T14:16:15.758Z,23.10
2018-06-02T14:18:43.611Z,22.80
2018-06-02T14:21:11.289Z,22.80
2018-06-02T14:23:39.056Z,23.40
2018-06-02T14:26:07.236Z,23.00
2018-06-02T14:28:35.195Z,23.50
2018-06-02T14:31:03.055Z,23.70
2018-06-02T14:33:31.249Z,23.90
2018-06-02T14:35:59.822Z,24.10
2018-06-02T14:38:27.596Z,24.20
2018-06-02T14:40:55.359Z,24.30
2018-06-02T14:43:23.116Z,24.40
2018-06-02T14:45:51.297Z,24.80
2018-06-02T14:48:19.259Z,24.90
2018-06-02T14:50:47.214Z,25.10
2018-06-02T14:53:15.183Z,25.10
2018-06-02T14:55:43.099Z,25.20
2018-06-02T14:58:10.924Z,25.40
2018-06-02T15:00:39.187Z,25.40
2018-06-02T15:03:07.061Z,25.40
2018-06-02T15:05:35.661Z,25.50
2018-06-02T15:08:03.423Z,25.60
2018-06-02T15:10:31.375Z,25.70
2018-06-02T15:12:59.238Z,25.40
2018-06-02T15:15:27.101Z,25.50
2018-06-02T15:17:55.295Z,25.20
2018-06-02T15:20:23.033Z,25.00
2018-06-02T15:22:51.250Z,25.20
2018-06-02T15:25:20.511Z,25.10
2018-06-02T15:27:49.129Z,25.10
2018-06-02T15:30:17.378Z,25.00
2018-06-02T15:32:45.230Z,25.10
2018-06-02T15:37:42.096Z,25.40
2018-06-02T15:40:09.960Z,25.20
2018-06-02T15:42:37.714Z,25.40
2018-06-02T15:45:05.494Z,25.30
2018-06-02T15:47:35.083Z,25.40
2018-06-02T15:50:03.680Z,25.50
2018-06-02T15:52:31.554Z,25.30
2018-06-02T15:54:59.422Z,25.20
2018-06-02T15:57:27.694Z,25.30
2018-06-02T15:59:55.666Z,25.30
2018-06-02T16:02:23.416Z,25.20
2018-06-02T16:04:51.479Z,25.00
2018-06-02T16:07:19.257Z,25.10
2018-06-02T16:12:17.546Z,24.90
2018-06-02T16:14:45.303Z,25.00
2018-06-02T16:17:13.079Z,24.90
2018-06-02T16:19:41.257Z,25.10
2018-06-02T16:22:09.008Z,25.10
2018-06-02T16:24:37.192Z,25.20
2018-06-02T16:27:04.979Z,25.30
2018-06-02T16:29:33.225Z,25.40
2018-06-02T16:32:00.990Z,25.30
2018-06-02T16:34:29.154Z,25.40
2018-06-02T16:36:57.021Z,25.40
2018-06-02T16:39:25.211Z,25.20
2018-06-02T16:41:53.068Z,25.60
2018-06-02T16:44:21.264Z,25.30
2018-06-02T16:46:49.825Z,25.40
2018-06-02T16:49:17.587Z,25.10
2018-06-02T16:51:47.918Z,25.30
2018-06-02T16:54:15.669Z,25.40
2018-06-02T16:56:43.318Z,24.90
2018-06-02T16:59:11.109Z,25.20
2018-06-02T17:01:39.474Z,25.50
2018-06-02T17:04:07.333Z,24.90
2018-06-02T17:06:35.094Z,24.80
2018-06-02T17:09:03.972Z,24.80
2018-06-02T17:11:31.622Z,24.90
2018-06-02T17:13:59.421Z,24.80
2018-06-02T17:16:27.059Z,24.90
2018-06-02T17:18:55.255Z,24.80
2018-06-02T17:21:24.546Z,24.90
2018-06-02T17:23:53.131Z,25.00
2018-06-02T17:26:21.299Z,24.90
2018-06-02T17:28:49.075Z,25.00
2018-06-02T17:31:17.194Z,24.80
2018-06-02T17:33:45.426Z,24.90
2018-06-02T17:36:13.180Z,24.80
2018-06-02T17:38:40.947Z,25.20
2018-06-02T17:41:09.112Z,25.00
2018-06-02T17:43:37.709Z,24.90
2018-06-02T17:46:05.474Z,25.10
2018-06-02T17:48:33.320Z,25.50
2018-06-02T17:51:01.188Z,25.10
2018-06-02T17:53:28.973Z,25.20
2018-06-02T17:55:57.130Z,25.00
2018-06-02T17:58:25.722Z,24.90
2018-06-02T18:00:53.680Z,25.10
2018-06-02T18:03:21.639Z,25.10
2018-06-02T18:05:49.425Z,24.90
2018-06-02T18:08:17.286Z,25.10
2018-06-02T18:10:45.152Z,25.10
2018-06-02T18:13:13.726Z,25.00
2018-06-02T18:15:41.591Z,24.90
2018-06-02T18:18:09.351Z,24.90
2018-06-02T18:20:37.227Z,25.10
2018-06-02T18:23:04.971Z,25.10
2018-06-02T18:25:33.056Z,25.20
2018-06-02T18:28:01.323Z,25.20
2018-06-02T18:30:28.977Z,25.20
2018-06-02T18:35:26.143Z,25.20
2018-06-02T18:37:53.930Z,25.00
2018-06-02T18:40:21.686Z,25.10
2018-06-02T18:42:49.391Z,25.50
2018-06-02T18:45:17.925Z,24.90
2018-06-02T18:47:45.891Z,24.90
2018-06-02T18:50:13.682Z,24.90
2018-06-02T18:52:42.958Z,24.80
2018-06-02T18:55:11.134Z,24.70
2018-06-02T18:57:39.410Z,24.80
2018-06-02T19:00:07.591Z,24.50
2018-06-02T19:02:35.460Z,24.40
2018-06-02T19:05:03.424Z,24.70
2018-06-02T19:07:31.187Z,24.50
2018-06-02T19:09:59.197Z,24.40
2018-06-02T19:12:27.518Z,24.30
2018-06-02T19:14:55.390Z,24.10
2018-06-02T19:17:23.254Z,24.40
2018-06-02T19:19:51.022Z,24.30
2018-06-02T19:22:19.231Z,24.40
2018-06-02T19:24:47.830Z,24.10
2018-06-02T19:27:15.646Z,24.10
2018-06-02T19:29:43.415Z,23.90
2018-06-02T19:32:11.282Z,23.80
2018-06-02T19:34:39.236Z,23.90
2018-06-02T19:37:06.904Z,24.00
2018-06-02T19:39:35.073Z,23.90
2018-06-02T19:42:03.267Z,24.10
2018-06-02T19:44:31.126Z,24.00
2018-06-02T19:46:59.582Z,23.70
2018-06-02T19:49:27.459Z,23.80
2018-06-02T19:51:55.224Z,23.80
2018-06-02T19:54:23.075Z,23.60
2018-06-02T19:56:52.109Z,23.50
2018-06-02T19:59:21.174Z,23.50
2018-06-02T20:01:49.244Z,23.40
2018-06-02T20:04:16.948Z,23.30
2018-06-02T20:06:45.282Z,23.40
2018-06-02T20:09:13.052Z,23.40
2018-06-02T20:11:41.322Z,23.50
2018-06-02T20:14:09.316Z,23.20
2018-06-02T20:16:37.156Z,23.60
2018-06-02T20:19:05.338Z,23.10
2018-06-02T20:21:33.824Z,23.10
2018-06-02T20:24:01.671Z,22.70
2018-06-02T20:26:29.452Z,22.80
2018-06-02T20:28:57.094Z,23.00
2018-06-02T20:31:25.307Z,23.10
2018-06-02T20:33:53.875Z,23.00
2018-06-02T20:36:21.717Z,23.00
2018-06-02T20:38:49.379Z,22.90
2018-06-02T20:41:17.246Z,22.60
2018-06-02T20:43:45.115Z,22.60
2018-06-02T20:46:13.283Z,22.80
2018-06-02T20:48:41.148Z,22.90
2018-06-02T20:51:09.325Z,22.80
2018-06-02T20:53:37.086Z,22.80
2018-06-02T20:56:05.278Z,22.80
2018-06-02T20:58:33.738Z,22.80
2018-06-02T21:01:01.519Z,22.80
2018-06-02T21:05:59.403Z,22.90
2018-06-02T21:10:57.088Z,22.70
2018-06-02T21:13:25.140Z,22.70
2018-06-02T21:15:53.318Z,22.90
2018-06-02T21:18:21.495Z,22.60
2018-06-02T21:20:49.264Z,22.60
2018-06-02T21:23:17.105Z,22.80
2018-06-02T21:25:45.289Z,22.80
2018-06-02T21:28:13.157Z,22.90
2018-06-02T21:30:41.323Z,22.80
2018-06-02T21:33:09.087Z,22.90
2018-06-02T21:35:38.102Z,22.70
2018-06-02T21:38:05.851Z,22.90
2018-06-02T21:40:35.252Z,22.80
2018-06-02T21:43:03.030Z,22.80
2018-06-02T21:45:31.296Z,22.70
2018-06-02T21:47:59.869Z,22.70
2018-06-02T21:50:27.655Z,22.70
2018-06-02T21:52:57.031Z,22.60
2018-06-02T21:55:25.247Z,24.30
2018-06-02T21:57:53.382Z,22.90
2018-06-02T22:00:21.249Z,22.40
2018-06-02T22:02:49.109Z,22.60
2018-06-02T22:07:47.209Z,22.50
2018-06-02T22:10:15.676Z,22.50
2018-06-02T22:12:43.459Z,22.40
2018-06-02T22:15:12.337Z,22.50
2018-06-02T22:17:41.254Z,22.50
2018-06-02T22:20:09.607Z,22.30
2018-06-02T22:25:07.313Z,22.50
2018-06-02T22:27:35.868Z,22.40
2018-06-02T22:30:05.069Z,22.30
2018-06-02T22:32:33.237Z,22.30
2018-06-02T22:35:01.475Z,21.80
2018-06-02T22:37:29.170Z,22.10
2018-06-02T22:39:58.238Z,21.60
2018-06-02T22:42:27.039Z,21.90
2018-06-02T22:44:55.222Z,21.70
2018-06-02T22:47:23.298Z,21.30
2018-06-02T22:49:51.057Z,21.80
2018-06-02T22:52:19.223Z,23.00
2018-06-02T22:54:47.399Z,21.40
2018-06-02T22:57:15.261Z,21.50
2018-06-02T22:59:43.129Z,21.70
2018-06-02T23:02:11.409Z,21.70
2018-06-02T23:04:39.085Z,21.70
2018-06-02T23:07:07.258Z,21.60
2018-06-02T23:09:36.027Z,21.70
2018-06-02T23:12:03.899Z,21.50
2018-06-02T23:14:31.670Z,21.60
2018-06-02T23:19:30.078Z,21.60
2018-06-02T23:21:57.915Z,21.40
2018-06-02T23:24:25.700Z,21.70
2018-06-02T23:29:23.262Z,21.50
2018-06-02T23:31:51.038Z,21.40
2018-06-02T23:34:19.083Z,21.40
2018-06-02T23:36:47.363Z,21.50
2018-06-02T23:39:15.235Z,21.40
2018-06-02T23:41:43.425Z,21.30
2018-06-02T23:46:41.118Z,21.50
2018-06-02T23:49:09.155Z,21.20
2018-06-02T23:51:37.342Z,21.50
2018-06-02T23:54:05.907Z,21.20
2018-06-02T23:56:33.583Z,21.20
2018-06-02T23:59:01.452Z,20.90
